createdAt,value
2019-02-20T00:01:36.655Z,5.00
2019-02-20T00:04:06.232Z,5.10
2019-02-20T00:06:36.252Z,5.00
2019-02-20T00:09:06.682Z,5.00
2019-02-20T00:11:36.223Z,5.00
2019-02-20T00:14:05.505Z,4.90
2019-02-20T00:16:35.852Z,4.90
2019-02-20T00:19:05.160Z,5.00
2019-02-20T00:21:34.736Z,5.00
2019-02-20T00:24:04.016Z,5.10
2019-02-20T00:26:33.377Z,5.10
2019-02-20T00:29:02.655Z,5.10
2019-02-20T00:31:31.943Z,5.20
2019-02-20T00:34:01.221Z,5.20
2019-02-20T00:36:30.506Z,5.20
2019-02-20T00:38:59.783Z,5.10
2019-02-20T00:41:29.381Z,5.10
2019-02-20T00:44:00.866Z,5.00
2019-02-20T00:46:32.076Z,5.00
2019-02-20T00:49:04.087Z,5.10
2019-02-20T00:51:35.009Z,5.00
2019-02-20T00:54:06.156Z,5.00
2019-02-20T00:56:35.740Z,5.10
2019-02-20T00:59:05.017Z,5.10
2019-02-20T01:01:34.302Z,5.10
2019-02-20T01:04:04.539Z,5.10
2019-02-20T01:06:33.821Z,5.10
2019-02-20T01:09:03.170Z,5.20
2019-02-20T01:11:34.328Z,5.20
2019-02-20T01:14:03.613Z,5.20
2019-02-20T01:16:32.969Z,5.20
2019-02-20T01:19:02.883Z,5.20
2019-02-20T01:21:44.772Z,5.20
2019-02-20T01:24:14.663Z,5.20
2019-02-20T01:26:43.936Z,5.20
2019-02-20T01:29:13.226Z,5.20
2019-02-20T01:31:42.811Z,5.20
2019-02-20T01:34:12.145Z,5.30
2019-02-20T01:36:41.785Z,5.20
2019-02-20T01:39:11.309Z,5.20
2019-02-20T01:41:40.607Z,5.20
2019-02-20T01:44:10.220Z,5.20
2019-02-20T01:46:39.498Z,5.10
2019-02-20T01:49:08.771Z,5.10
2019-02-20T01:51:38.343Z,5.10
2019-02-20T01:54:07.624Z,5.10
2019-02-20T01:56:36.939Z,5.10
2019-02-20T01:59:06.212Z,5.10
2019-02-20T02:01:36.924Z,5.10
2019-02-20T02:04:06.233Z,5.00
2019-02-20T02:06:35.807Z,5.00
2019-02-20T02:09:07.739Z,5.00
2019-02-20T02:11:37.384Z,4.90
2019-02-20T02:14:06.673Z,4.90
2019-02-20T02:16:36.292Z,4.90
2019-02-20T02:19:05.570Z,4.90
2019-02-20T02:21:34.863Z,4.80
2019-02-20T02:24:04.138Z,4.70
2019-02-20T02:26:33.404Z,4.60
2019-02-20T02:29:02.684Z,4.50
2019-02-20T02:31:31.962Z,4.50
2019-02-20T02:34:01.540Z,4.40
2019-02-20T02:36:31.131Z,4.30
2019-02-20T02:39:00.745Z,4.30
2019-02-20T02:41:31.884Z,4.30
2019-02-20T02:44:01.165Z,4.30
2019-02-20T02:46:30.940Z,4.20
2019-02-20T02:49:00.217Z,4.20
2019-02-20T02:51:29.524Z,4.20
2019-02-20T02:53:59.138Z,4.20
2019-02-20T02:56:28.403Z,4.20
2019-02-20T02:58:57.711Z,4.20
2019-02-20T03:01:27.647Z,4.20
2019-02-20T03:03:57.997Z,4.20
2019-02-20T03:06:27.700Z,4.20
2019-02-20T03:08:57.312Z,4.20
2019-02-20T03:11:26.921Z,4.20
2019-02-20T03:13:56.536Z,4.20
2019-02-20T03:16:25.823Z,4.20
2019-02-20T03:18:55.092Z,4.20
2019-02-20T03:21:24.651Z,4.20
2019-02-20T03:23:54.898Z,4.20
2019-02-20T03:26:24.181Z,4.10
2019-02-20T03:28:53.786Z,4.10
2019-02-20T03:31:23.062Z,4.10
2019-02-20T03:33:53.026Z,4.10
2019-02-20T03:36:22.311Z,4.10
2019-02-20T03:38:51.582Z,4.10
2019-02-20T03:41:20.874Z,4.10
2019-02-20T03:43:50.511Z,4.10
2019-02-20T03:46:20.866Z,4.10
2019-02-20T03:48:50.155Z,4.10
2019-02-20T03:51:19.775Z,4.10
2019-02-20T03:53:52.005Z,4.10
2019-02-20T03:56:20.523Z,4.20
2019-02-20T03:58:50.147Z,4.20
2019-02-20T04:01:20.098Z,4.20
2019-02-20T04:03:49.375Z,4.20
2019-02-20T04:06:19.831Z,4.20
2019-02-20T04:08:49.159Z,4.10
2019-02-20T04:11:18.439Z,4.10
2019-02-20T04:13:48.009Z,4.20
2019-02-20T04:16:17.286Z,4.20
2019-02-20T04:18:47.060Z,4.20
2019-02-20T04:21:16.643Z,4.20
2019-02-20T04:23:45.912Z,4.20
2019-02-20T04:26:15.459Z,4.20
2019-02-20T04:28:44.731Z,4.20
2019-02-20T04:31:14.011Z,4.20
2019-02-20T04:33:43.294Z,4.20
2019-02-20T04:36:13.515Z,4.20
2019-02-20T04:38:42.793Z,4.30
2019-02-20T04:41:12.401Z,4.30
2019-02-20T04:43:42.016Z,4.30
2019-02-20T04:46:11.283Z,4.20
2019-02-20T04:48:40.592Z,4.20
2019-02-20T04:51:09.869Z,4.20
2019-02-20T04:53:39.146Z,4.20
2019-02-20T04:56:08.741Z,4.20
2019-02-20T04:58:38.015Z,4.20
2019-02-20T05:01:07.389Z,4.20
2019-02-20T05:03:36.667Z,4.20
2019-02-20T05:06:05.952Z,4.20
2019-02-20T05:08:36.021Z,4.20
2019-02-20T05:11:05.897Z,4.30
2019-02-20T05:13:35.512Z,4.30
2019-02-20T05:16:04.852Z,4.30
2019-02-20T05:18:34.156Z,4.30
2019-02-20T05:21:03.436Z,4.30
2019-02-20T05:23:33.032Z,4.30
2019-02-20T05:26:02.307Z,4.30
2019-02-20T05:28:31.599Z,4.30
2019-02-20T05:31:01.231Z,4.20
2019-02-20T05:33:30.964Z,4.30
2019-02-20T05:36:00.255Z,4.20
2019-02-20T05:38:29.880Z,4.20
2019-02-20T05:40:59.488Z,4.20
2019-02-20T05:43:28.795Z,4.20
2019-02-20T05:45:58.104Z,4.20
2019-02-20T05:48:27.708Z,4.20
2019-02-20T05:50:58.485Z,4.20
2019-02-20T05:53:27.759Z,4.20
2019-02-20T05:55:57.376Z,4.20
2019-02-20T05:58:27.081Z,4.30
2019-02-20T06:00:56.692Z,4.30
2019-02-20T06:03:25.978Z,4.30
2019-02-20T06:05:55.264Z,4.30
2019-02-20T06:08:24.806Z,4.20
2019-02-20T06:10:55.652Z,4.20
2019-02-20T06:13:25.872Z,4.20
2019-02-20T06:15:55.483Z,4.20
2019-02-20T06:18:25.089Z,4.20
2019-02-20T06:20:54.373Z,4.20
2019-02-20T06:23:23.670Z,4.20
2019-02-20T06:25:53.303Z,4.20
2019-02-20T06:28:22.920Z,4.20
2019-02-20T06:30:52.531Z,4.20
2019-02-20T06:33:22.152Z,4.20
2019-02-20T06:35:51.757Z,4.20
2019-02-20T06:38:21.065Z,4.20
2019-02-20T06:40:50.737Z,4.20
2019-02-20T06:43:20.381Z,4.20
2019-02-20T06:45:49.659Z,4.20
2019-02-20T06:48:20.426Z,4.20
2019-02-20T06:50:49.757Z,4.20
2019-02-20T06:53:19.028Z,4.20
2019-02-20T06:55:48.536Z,4.30
2019-02-20T06:58:37.157Z,4.20
2019-02-20T07:01:06.795Z,4.30
2019-02-20T07:03:36.063Z,4.30
2019-02-20T07:06:26.733Z,4.30
2019-02-20T07:09:19.115Z,4.20
2019-02-20T07:11:58.661Z,4.30
2019-02-20T07:14:39.551Z,4.30
2019-02-20T07:17:17.527Z,4.30
2019-02-20T07:19:55.860Z,4.40
2019-02-20T07:22:38.427Z,4.40
2019-02-20T07:25:16.739Z,4.40
2019-02-20T07:28:04.423Z,4.50
2019-02-20T07:30:33.992Z,4.50
2019-02-20T07:33:03.267Z,4.60
2019-02-20T07:35:33.936Z,4.60
2019-02-20T07:38:03.536Z,4.70
2019-02-20T07:40:33.791Z,4.70
2019-02-20T07:43:03.372Z,4.70
2019-02-20T07:45:32.984Z,4.70
2019-02-20T07:48:02.255Z,4.70
2019-02-20T07:50:31.527Z,4.70
2019-02-20T07:53:00.820Z,4.80
2019-02-20T07:55:30.099Z,4.80
2019-02-20T07:57:59.708Z,4.80
2019-02-20T08:00:28.983Z,4.80
2019-02-20T08:02:58.258Z,4.80
2019-02-20T08:05:27.534Z,4.80
2019-02-20T08:07:56.814Z,4.90
2019-02-20T08:10:26.133Z,4.90
2019-02-20T08:12:56.445Z,5.00
2019-02-20T08:15:25.723Z,5.10
2019-02-20T08:17:55.268Z,5.30
2019-02-20T08:20:24.885Z,5.40
2019-02-20T08:22:54.797Z,5.60
2019-02-20T08:25:24.103Z,5.70
2019-02-20T08:27:53.432Z,5.80
2019-02-20T08:30:22.715Z,5.90
2019-02-20T08:32:51.991Z,6.00
2019-02-20T08:35:21.539Z,6.00
2019-02-20T08:37:51.138Z,6.00
2019-02-20T08:40:20.668Z,6.00
2019-02-20T08:42:50.273Z,6.10
2019-02-20T08:45:19.873Z,6.20
2019-02-20T08:47:49.481Z,6.30
2019-02-20T08:50:19.090Z,6.50
2019-02-20T08:52:48.697Z,6.60
2019-02-20T08:55:19.010Z,6.90
2019-02-20T08:57:49.584Z,6.90
2019-02-20T09:00:20.971Z,7.10
2019-02-20T09:02:49.931Z,7.10
2019-02-20T09:05:19.209Z,7.10
2019-02-20T09:07:48.483Z,7.10
2019-02-20T09:10:17.757Z,7.10
2019-02-20T09:12:47.037Z,7.20
2019-02-20T09:15:17.555Z,7.20
2019-02-20T09:17:46.838Z,7.20
2019-02-20T09:20:16.095Z,7.30
2019-02-20T09:22:45.674Z,7.50
2019-02-20T09:25:19.930Z,7.50
2019-02-20T09:27:46.912Z,7.60
2019-02-20T09:30:16.569Z,7.70
2019-02-20T09:32:46.157Z,7.60
2019-02-20T09:35:15.435Z,7.60
2019-02-20T09:37:44.704Z,7.60
2019-02-20T09:40:16.211Z,7.70
2019-02-20T09:42:48.033Z,7.60
2019-02-20T09:45:17.933Z,7.60
2019-02-20T09:47:47.515Z,7.70
2019-02-20T09:50:16.791Z,7.70
2019-02-20T09:52:52.233Z,7.70
2019-02-20T09:55:17.286Z,7.70
2019-02-20T09:57:46.601Z,7.80
2019-02-20T10:00:19.944Z,7.90
2019-02-20T10:02:49.807Z,8.00
2019-02-20T10:05:19.092Z,8.10
2019-02-20T10:07:48.694Z,8.20
2019-02-20T10:10:17.975Z,8.60
2019-02-20T10:12:47.243Z,8.70
2019-02-20T10:15:19.948Z,8.80
2019-02-20T10:17:49.827Z,9.00
2019-02-20T10:20:19.092Z,9.10
2019-02-20T10:22:48.372Z,9.20
2019-02-20T10:25:17.920Z,8.90
2019-02-20T10:27:47.211Z,8.80
2019-02-20T10:30:19.840Z,8.70
2019-02-20T10:32:49.512Z,8.70
2019-02-20T10:35:18.783Z,8.60
2019-02-20T10:37:48.333Z,8.70
2019-02-20T10:40:17.955Z,8.80
2019-02-20T10:42:47.223Z,8.90
2019-02-20T10:45:16.538Z,8.90
2019-02-20T10:47:45.877Z,9.10
2019-02-20T10:50:15.564Z,9.30
2019-02-20T10:52:45.176Z,9.60
2019-02-20T10:55:14.788Z,9.50
2019-02-20T10:57:45.216Z,9.30
2019-02-20T11:00:23.988Z,9.20
2019-02-20T11:02:48.844Z,9.20
2019-02-20T11:05:18.255Z,9.30
2019-02-20T11:07:47.863Z,9.10
2019-02-20T11:10:17.372Z,9.00
2019-02-20T11:12:46.975Z,8.90
2019-02-20T11:15:17.336Z,9.00
2019-02-20T11:17:46.615Z,9.00
2019-02-20T11:20:16.257Z,9.00
2019-02-20T11:22:45.831Z,9.00
2019-02-20T11:25:15.112Z,9.00
2019-02-20T11:27:44.644Z,9.20
2019-02-20T11:30:25.658Z,9.20
2019-02-20T11:32:55.531Z,9.20
2019-02-20T11:35:24.813Z,9.10
2019-02-20T11:37:54.093Z,9.20
2019-02-20T11:40:24.059Z,9.20
2019-02-20T11:42:53.343Z,9.40
2019-02-20T11:45:22.620Z,9.60
2019-02-20T11:47:51.891Z,9.70
2019-02-20T11:50:21.163Z,9.80
2019-02-20T11:52:50.684Z,10.10
2019-02-20T11:55:19.986Z,10.50
2019-02-20T11:57:50.336Z,10.70
2019-02-20T12:00:19.688Z,10.60
2019-02-20T12:02:49.227Z,10.70
2019-02-20T12:05:18.632Z,10.70
2019-02-20T12:07:47.920Z,10.50
2019-02-20T12:10:18.272Z,10.40
2019-02-20T12:12:47.707Z,10.10
2019-02-20T12:15:16.984Z,9.90
2019-02-20T12:17:46.325Z,9.90
2019-02-20T12:20:15.892Z,9.90
2019-02-20T12:22:46.425Z,9.90
2019-02-20T12:25:15.705Z,10.00
2019-02-20T12:27:44.981Z,9.80
2019-02-20T12:30:14.342Z,9.80
2019-02-20T12:32:43.614Z,9.80
2019-02-20T12:35:13.150Z,9.80
2019-02-20T12:37:42.420Z,9.90
2019-02-20T12:40:12.371Z,10.00
2019-02-20T12:42:43.139Z,10.20
2019-02-20T12:45:12.720Z,10.20
2019-02-20T12:47:41.999Z,10.30
2019-02-20T12:50:15.630Z,10.20
2019-02-20T12:52:44.923Z,10.20
2019-02-20T12:55:14.545Z,10.30
2019-02-20T12:57:44.080Z,10.40
2019-02-20T13:00:15.568Z,10.40
2019-02-20T13:02:44.893Z,10.30
2019-02-20T13:05:14.833Z,10.30
2019-02-20T13:07:44.122Z,10.40
2019-02-20T13:10:13.391Z,10.70
2019-02-20T13:12:42.672Z,11.00
2019-02-20T13:15:12.419Z,11.50
2019-02-20T13:17:42.310Z,12.00
2019-02-20T13:20:12.487Z,11.90
2019-02-20T13:22:42.104Z,11.60
2019-02-20T13:25:12.130Z,11.50
2019-02-20T13:27:41.654Z,11.40
2019-02-20T13:30:13.539Z,11.40
2019-02-20T13:32:42.825Z,11.30
2019-02-20T13:35:13.236Z,11.30
2019-02-20T13:37:42.852Z,11.20
2019-02-20T13:40:12.135Z,11.20
2019-02-20T13:42:41.415Z,11.30
2019-02-20T13:45:10.885Z,11.30
2019-02-20T13:47:40.531Z,11.30
2019-02-20T13:50:11.768Z,11.20
2019-02-20T13:52:42.688Z,11.20
2019-02-20T13:55:12.268Z,11.10
2019-02-20T13:57:41.547Z,10.90
2019-02-20T14:00:13.343Z,11.00
2019-02-20T14:02:42.901Z,10.80
2019-02-20T14:05:12.198Z,10.70
2019-02-20T14:07:41.955Z,10.60
2019-02-20T14:10:13.727Z,10.50
2019-02-20T14:12:43.004Z,10.60
2019-02-20T14:15:12.763Z,10.60
2019-02-20T14:17:42.052Z,10.70
2019-02-20T14:20:12.374Z,10.70
2019-02-20T14:22:42.288Z,10.70
2019-02-20T14:25:11.640Z,10.80
2019-02-20T14:27:40.924Z,10.80
2019-02-20T14:30:11.653Z,10.70
2019-02-20T14:32:41.244Z,10.70
2019-02-20T14:35:12.600Z,10.70
2019-02-20T14:37:42.755Z,10.60
2019-02-20T14:40:12.341Z,10.50
2019-02-20T14:42:41.612Z,10.60
2019-02-20T14:45:16.468Z,10.50
2019-02-20T14:47:45.743Z,10.60
2019-02-20T14:50:15.040Z,10.60
2019-02-20T14:52:45.606Z,10.50
2019-02-20T14:55:14.959Z,10.50
2019-02-20T14:57:44.518Z,10.50
2019-02-20T15:00:16.281Z,10.60
2019-02-20T15:02:46.951Z,10.50
2019-02-20T15:05:16.605Z,10.40
2019-02-20T15:07:47.067Z,10.40
2019-02-20T15:10:16.667Z,10.30
2019-02-20T15:12:46.671Z,10.30
2019-02-20T15:15:18.996Z,10.20
2019-02-20T15:17:48.781Z,10.20
2019-02-20T15:20:18.983Z,10.30
2019-02-20T15:22:48.612Z,10.50
2019-02-20T15:25:18.776Z,10.50
2019-02-20T15:27:48.057Z,10.60
2019-02-20T15:30:17.406Z,10.70
2019-02-20T15:32:46.689Z,10.70
2019-02-20T15:35:16.358Z,10.70
2019-02-20T15:37:46.724Z,10.70
2019-02-20T15:40:16.004Z,10.60
2019-02-20T15:42:45.532Z,10.50
2019-02-20T15:45:15.112Z,10.30
2019-02-20T15:47:44.727Z,10.10
2019-02-20T15:50:15.163Z,10.00
2019-02-20T15:52:44.444Z,9.90
2019-02-20T15:55:14.474Z,9.80
2019-02-20T15:57:44.094Z,9.80
2019-02-20T16:00:18.932Z,9.70
2019-02-20T16:02:48.528Z,9.60
2019-02-20T16:05:19.054Z,9.50
2019-02-20T16:07:48.410Z,9.50
2019-02-20T16:10:17.851Z,9.40
2019-02-20T16:12:47.789Z,9.40
2019-02-20T16:15:17.407Z,9.30
2019-02-20T16:17:46.703Z,9.20
2019-02-20T16:20:16.360Z,9.20
2019-02-20T16:22:45.635Z,9.10
2019-02-20T16:25:16.365Z,9.10
2019-02-20T16:27:47.957Z,9.10
2019-02-20T16:30:18.771Z,9.00
2019-02-20T16:32:48.364Z,9.00
2019-02-20T16:35:17.639Z,8.90
2019-02-20T16:37:46.915Z,8.80
2019-02-20T16:40:16.560Z,8.70
2019-02-20T16:42:45.844Z,8.60
2019-02-20T16:45:23.898Z,8.50
2019-02-20T16:47:54.246Z,8.50
2019-02-20T16:50:23.525Z,8.40
2019-02-20T16:52:52.812Z,8.40
2019-02-20T16:55:22.823Z,8.40
2019-02-20T16:57:56.620Z,8.50
2019-02-20T17:00:23.549Z,8.40
2019-02-20T17:02:53.620Z,8.40
2019-02-20T17:05:22.908Z,8.40
2019-02-20T17:07:52.457Z,8.40
2019-02-20T17:10:22.355Z,8.40
2019-02-20T17:12:51.965Z,8.40
2019-02-20T17:15:21.234Z,8.40
2019-02-20T17:17:53.004Z,8.40
2019-02-20T17:20:22.234Z,8.30
2019-02-20T17:22:51.517Z,8.30
2019-02-20T17:25:21.323Z,8.30
2019-02-20T17:27:52.021Z,8.30
2019-02-20T17:30:21.315Z,8.20
2019-02-20T17:32:51.217Z,8.20
2019-02-20T17:35:20.541Z,8.20
2019-02-20T17:37:49.866Z,8.20
2019-02-20T17:40:19.139Z,8.20
2019-02-20T17:42:48.740Z,8.10
2019-02-20T17:45:20.969Z,8.10
2019-02-20T17:47:50.248Z,8.10
2019-02-20T17:50:24.921Z,8.10
2019-02-20T17:52:54.544Z,8.10
2019-02-20T17:55:23.824Z,8.10
2019-02-20T17:57:53.565Z,8.00
2019-02-20T18:00:24.947Z,8.00
2019-02-20T18:02:54.253Z,7.90
2019-02-20T18:05:24.122Z,7.80
2019-02-20T18:07:53.497Z,7.80
2019-02-20T18:10:23.050Z,7.80
2019-02-20T18:12:52.325Z,7.80
2019-02-20T18:15:22.168Z,7.70
2019-02-20T18:17:51.780Z,7.60
2019-02-20T18:20:21.394Z,7.60
2019-02-20T18:22:50.670Z,7.50
2019-02-20T18:25:20.200Z,7.40
2019-02-20T18:27:49.479Z,7.30
2019-02-20T18:30:21.857Z,7.20
2019-02-20T18:32:51.124Z,7.10
2019-02-20T18:35:20.449Z,7.10
2019-02-20T18:37:49.769Z,7.00
2019-02-20T18:40:19.076Z,7.00
2019-02-20T18:42:48.907Z,6.80
2019-02-20T18:45:18.529Z,6.70
2019-02-20T18:47:47.923Z,6.60
2019-02-20T18:50:17.562Z,6.50
2019-02-20T18:52:47.158Z,6.50
2019-02-20T18:55:16.441Z,6.40
2019-02-20T18:57:45.804Z,6.30
2019-02-20T19:00:19.855Z,6.20
2019-02-20T19:02:49.385Z,6.10
2019-02-20T19:05:19.325Z,6.10
2019-02-20T19:07:48.758Z,6.20
2019-02-20T19:10:39.338Z,6.20
2019-02-20T19:13:40.756Z,6.10
2019-02-20T19:16:22.630Z,6.00
2019-02-20T19:19:07.276Z,5.90
2019-02-20T19:21:48.867Z,5.80
2019-02-20T19:24:21.211Z,5.80
2019-02-20T19:27:02.090Z,5.70
2019-02-20T19:29:54.631Z,5.70
2019-02-20T19:32:28.244Z,5.60
2019-02-20T19:35:18.775Z,5.60
2019-02-20T19:37:54.587Z,5.60
2019-02-20T19:40:35.452Z,5.40
2019-02-20T19:43:27.703Z,5.40
2019-02-20T19:46:08.240Z,5.30
2019-02-20T19:48:46.311Z,5.30
2019-02-20T19:51:27.706Z,5.30
2019-02-20T19:54:11.224Z,5.30
2019-02-20T19:56:44.248Z,5.30
2019-02-20T19:59:34.717Z,5.20
2019-02-20T20:02:32.439Z,5.20
2019-02-20T20:05:16.982Z,5.20
2019-02-20T20:07:49.423Z,5.20
2019-02-20T20:10:39.207Z,5.20
2019-02-20T20:13:40.509Z,5.10
2019-02-20T20:16:21.773Z,5.10
2019-02-20T20:18:56.841Z,5.10
2019-02-20T20:21:32.116Z,5.10
2019-02-20T20:24:27.127Z,5.10
2019-02-20T20:27:15.396Z,5.10
2019-02-20T20:30:04.298Z,5.10
2019-02-20T20:32:56.407Z,5.10
2019-02-20T20:35:44.321Z,5.10
2019-02-20T20:38:39.635Z,5.10
2019-02-20T20:41:40.924Z,5.10
2019-02-20T20:44:28.362Z,5.20
2019-02-20T20:47:09.623Z,5.30
2019-02-20T20:50:01.123Z,5.40
2019-02-20T20:52:43.011Z,5.60
2019-02-20T20:55:26.718Z,5.70
2019-02-20T20:58:10.031Z,5.70
2019-02-20T21:00:46.443Z,5.70
2019-02-20T21:03:18.822Z,5.80
2019-02-20T21:05:54.156Z,5.80
2019-02-20T21:08:29.199Z,5.80
2019-02-20T21:11:01.748Z,5.80
2019-02-20T21:13:51.708Z,5.90
2019-02-20T21:16:27.797Z,5.80
2019-02-20T21:19:21.529Z,5.80
2019-02-20T21:22:03.756Z,5.80
2019-02-20T21:24:55.191Z,5.80
2019-02-20T21:27:39.407Z,5.70
2019-02-20T21:30:26.824Z,5.60
2019-02-20T21:33:22.143Z,5.60
2019-02-20T21:36:03.311Z,5.50
2019-02-20T21:38:35.675Z,5.50
2019-02-20T21:41:16.983Z,5.40
2019-02-20T21:44:09.687Z,5.40
2019-02-20T21:46:56.884Z,5.40
2019-02-20T21:49:42.299Z,5.30
2019-02-20T21:52:34.212Z,5.20
2019-02-20T21:55:26.400Z,5.20
2019-02-20T21:58:04.823Z,5.10
2019-02-20T22:00:45.831Z,5.00
2019-02-20T22:03:35.057Z,5.00
2019-02-20T22:06:13.503Z,5.00
2019-02-20T22:08:51.547Z,4.80
2019-02-20T22:11:43.239Z,4.90
2019-02-20T22:14:33.467Z,4.90
2019-02-20T22:17:20.671Z,4.80
2019-02-20T22:20:05.074Z,4.80
2019-02-20T22:22:47.095Z,4.80
2019-02-20T22:25:25.742Z,4.80
2019-02-20T22:28:04.008Z,4.80
2019-02-20T22:30:39.270Z,4.80
2019-02-20T22:33:20.528Z,4.80
2019-02-20T22:36:08.027Z,4.80
2019-02-20T22:38:48.384Z,4.80
2019-02-20T22:41:27.057Z,4.70
2019-02-20T22:43:59.439Z,4.70
2019-02-20T22:46:50.020Z,4.70
2019-02-20T22:49:43.479Z,4.60
2019-02-20T22:52:15.868Z,4.70
2019-02-20T22:54:57.944Z,4.70
2019-02-20T22:57:41.975Z,4.60
2019-02-20T23:00:43.111Z,4.60
2019-02-20T23:03:23.179Z,4.60
2019-02-20T23:05:58.928Z,4.50
2019-02-20T23:08:40.266Z,4.50
2019-02-20T23:11:37.931Z,4.50
2019-02-20T23:14:16.003Z,4.50
2019-02-20T23:16:45.765Z,4.50
2019-02-20T23:19:15.039Z,4.50
2019-02-20T23:21:44.574Z,4.40
2019-02-20T23:24:13.855Z,4.40
2019-02-20T23:26:43.131Z,4.40
2019-02-20T23:29:13.729Z,4.30
2019-02-20T23:31:43.171Z,4.30
2019-02-20T23:34:13.048Z,4.30
2019-02-20T23:36:42.327Z,4.20
2019-02-20T23:39:11.957Z,4.20
2019-02-20T23:41:41.267Z,4.20
2019-02-20T23:44:10.539Z,4.20
2019-02-20T23:46:39.823Z,4.20
2019-02-20T23:49:09.103Z,4.10
2019-02-20T23:51:38.386Z,4.00
2019-02-20T23:54:09.010Z,4.00
2019-02-20T23:56:38.617Z,3.90
2019-02-20T23:59:08.595Z,3.90
